Time;durP1;ratioP1;P1;durP2;ratioP2;P2;SDS_P1;SDS_P2;PMS_P1;PMS_P2;Temp;Humidity;BMP_temperature;BMP_pressure;BME280_temperature;BME280_humidity;BME280_pressure;Samples;Min_cycle;Max_cycle;Signal;HPM_P1;HPM_P2
2021/12/05 00:18:31;;;;;;;11.60;2.92;;;;;;;9.77;57.22;99753.34;4973762;29;20050;-63
2021/12/05 00:21:30;;;;;;;19.83;3.13;;;;;;;10.47;55.73;99744.94;4973966;29;20027;-65
2021/12/05 00:24:06;;;;;;;13.45;3.33;;;;;;;10.40;55.48;99747.38;4960496;29;20063;-63
2021/12/05 00:26:34;;;;;;;14.52;2.60;;;;;;;9.69;57.86;99749.47;4956948;29;20059;-63
2021/12/05 00:55:42;;;;;;;13.45;3.30;;;;;;;10.69;56.34;99747.41;4972143;29;20039;-65
2021/12/05 01:09:14;;;;;;;13.52;3.25;;;;;;;10.10;57.97;99728.13;4958861;29;20046;-65
2021/12/05 01:16:47;;;;;;;12.85;3.75;;;;;;;10.21;57.43;99734.84;4956217;29;20046;-66
2021/12/05 01:19:15;;;;;;;12.82;2.92;;;;;;;10.48;56.68;99735.59;4972663;29;20050;-66
2021/12/05 01:21:43;;;;;;;11.85;3.20;;;;;;;9.95;58.08;99733.00;4972835;29;20031;-62
2021/12/05 01:24:19;;;;;;;;;;;;;;;10.80;56.59;99730.56;4922807;29;20056;-65
2021/12/05 01:34:50;;;;;;;13.02;3.38;;;;;;;9.58;58.71;99729.06;4934224;29;20106;-62
2021/12/05 01:37:42;;;;;;;8.60;2.53;;;;;;;9.63;58.53;99737.09;4936986;29;20036;-64
2021/12/05 01:44:00;;;;;;;12.77;3.28;;;;;;;9.61;58.23;99728.41;4934592;29;20063;-66
2021/12/05 02:31:18;;;;;;;16.55;4.60;;;;;;;9.02;61.34;99720.66;4976142;29;20103;-65
2021/12/05 02:41:40;;;;;;;14.43;4.38;;;;;;;8.71;62.75;99727.84;4975476;29;20043;-65
2021/12/05 02:44:21;;;;;;;19.05;4.82;;;;;;;9.42;60.40;99724.06;4975887;29;20038;-64
2021/12/05 02:47:03;;;;;;;22.35;5.63;;;;;;;8.97;62.14;99723.56;4960843;29;20667;-63
2021/12/05 02:49:31;;;;;;;13.77;4.93;;;;;;;8.67;62.66;99717.88;4974142;28;20038;-63
2021/12/05 02:52:02;;;;;;;20.02;4.93;;;;;;;9.23;61.33;99721.66;4975619;29;20028;-62
2021/12/05 02:54:32;;;;;;;17.73;5.38;;;;;;;8.64;62.79;99718.53;4975115;29;20031;-65
2021/12/05 02:56:59;;;;;;;11.15;5.07;;;;;;;8.77;62.13;99720.31;4958493;29;20035;-64
2021/12/05 03:02:09;;;;;;;16.10;5.43;;;;;;;8.53;62.89;99713.34;4975522;29;20039;-64
2021/12/05 03:04:37;;;;;;;15.50;5.32;;;;;;;9.10;61.29;99706.22;4974955;29;20046;-64
2021/12/05 03:07:06;;;;;;;20.38;6.63;;;;;;;9.13;61.39;99711.03;4942789;29;20094;-65
2021/12/05 03:09:32;;;;;;;19.70;6.05;;;;;;;8.73;62.51;99708.41;4975113;29;20524;-65
2021/12/05 03:11:58;;;;;;;19.20;6.45;;;;;;;8.78;62.00;99713.72;4975292;29;20034;-62
2021/12/05 03:14:24;;;;;;;15.85;5.53;;;;;;;8.36;63.75;99711.31;4957915;29;20063;-62
2021/12/05 03:16:50;;;;;;;13.18;6.00;;;;;;;8.62;62.64;99709.81;4975237;29;20035;-64
2021/12/05 03:19:16;;;;;;;12.63;4.70;;;;;;;8.80;61.87;99716.16;4958038;29;20023;-66
2021/12/05 03:21:43;;;;;;;8.80;3.60;;;;;;;8.22;63.13;99705.16;4973716;29;20095;-62
2021/12/05 03:24:10;;;;;;;7.68;3.75;;;;;;;8.63;61.62;99705.97;4974921;29;20054;-62
2021/12/05 03:26:40;;;;;;;9.82;4.00;;;;;;;8.78;61.39;99715.66;4973857;28;20038;-64
2021/12/05 03:29:08;;;;;;;7.70;4.20;;;;;;;9.10;60.35;99719.88;4975004;29;20023;-64
2021/12/05 03:31:35;;;;;;;10.00;4.32;;;;;;;8.71;61.72;99719.66;4957585;29;20034;-66
2021/12/05 03:34:02;;;;;;;7.60;3.92;;;;;;;9.18;60.15;99721.81;4974964;29;20043;-65
2021/12/05 03:36:27;;;;;;;7.20;4.13;;;;;;;9.00;60.43;99717.44;4974597;29;20058;-64
2021/12/05 03:38:53;;;;;;;7.65;4.40;;;;;;;9.24;59.63;99728.75;4957944;29;20035;-63
2021/12/05 03:41:19;;;;;;;9.80;4.35;;;;;;;9.51;58.98;99731.47;4974708;29;20050;-64
2021/12/05 03:43:47;;;;;;;8.50;4.40;;;;;;;9.40;59.31;99720.03;4974339;29;20045;-64
2021/12/05 03:46:13;;;;;;;11.18;4.43;;;;;;;9.04;60.75;99723.91;4973620;28;20029;-62
2021/12/05 03:48:43;;;;;;;13.18;6.30;;;;;;;8.77;61.58;99725.78;4974311;29;20035;-64
2021/12/05 03:51:12;;;;;;;10.95;5.65;;;;;;;8.99;61.05;99722.13;4974275;28;20023;-63
2021/12/05 03:53:37;;;;;;;13.85;7.10;;;;;;;9.11;60.82;99731.63;4974045;29;20053;-63
2021/12/05 03:56:05;;;;;;;11.20;6.47;;;;;;;9.54;59.57;99728.06;4941552;29;20066;-64
2021/12/05 03:58:31;;;;;;;13.38;6.82;;;;;;;9.18;60.51;99737.41;4957326;29;20047;-65
2021/12/05 04:00:58;;;;;;;11.65;5.90;;;;;;;8.83;61.89;99740.13;4974336;29;20083;-64
2021/12/05 04:03:26;;;;;;;11.57;6.03;;;;;;;9.28;60.13;99741.78;4941417;29;20042;-63
2021/12/05 04:05:51;;;;;;;;;;;;;;;9.14;61.05;99729.03;4974663;29;20035;-66
2021/12/05 04:08:19;;;;;;;11.90;6.03;;;;;;;9.67;59.53;99739.97;4973085;28;19911;-65
2021/12/05 04:10:48;;;;;;;8.77;6.15;;;;;;;9.22;60.38;99736.44;4973822;29;20043;-64
2021/12/05 04:13:14;;;;;;;13.07;6.40;;;;;;;9.08;61.17;99746.72;4974127;29;20056;-64
2021/12/05 04:15:41;;;;;;;9.80;6.00;;;;;;;8.42;62.33;99747.50;4973844;29;20031;-64
2021/12/05 04:18:06;;;;;;;8.18;5.50;;;;;;;8.59;62.81;99744.06;4973995;29;20031;-63
2021/12/05 04:20:32;;;;;;;11.25;6.25;;;;;;;8.77;61.86;99752.31;4973852;29;20078;-66
2021/12/05 04:22:58;;;;;;;12.13;6.25;;;;;;;8.34;63.03;99751.00;4973875;29;20091;-62
2021/12/05 04:25:25;;;;;;;12.27;6.20;;;;;;;9.55;59.77;99746.91;4973975;29;20033;-64
2021/12/05 04:27:53;;;;;;;12.10;6.55;;;;;;;9.41;60.21;99749.00;4973665;29;20063;-64
2021/12/05 04:30:22;;;;;;;11.23;6.38;;;;;;;8.98;61.10;99757.97;4973941;29;20043;-64
2021/12/05 04:32:48;;;;;;;9.32;6.20;;;;;;;8.11;63.29;99751.06;4972584;29;20019;-65
2021/12/05 04:35:15;;;;;;;10.00;5.53;;;;;;;8.41;62.13;99748.59;4973781;29;20137;-63
2021/12/05 04:37:40;;;;;;;8.40;5.32;;;;;;;8.77;61.65;99747.63;4973302;28;20034;-67
2021/12/05 04:40:07;;;;;;;10.52;5.80;;;;;;;8.85;60.97;99762.47;4973788;29;20035;-62
2021/12/05 04:42:33;;;;;;;9.88;4.95;;;;;;;8.76;61.09;99756.94;4956312;29;20031;-63
2021/12/05 04:45:09;;;;;;;11.02;5.70;;;;;;;8.86;61.78;99755.84;4956582;29;20042;-65
2021/12/05 04:47:34;;;;;;;12.40;5.68;;;;;;;9.05;60.93;99755.56;4970638;29;20043;-62
2021/12/05 04:50:00;;;;;;;10.18;5.65;;;;;;;9.31;59.64;99763.00;4940878;29;20050;-64
2021/12/05 04:52:25;;;;;;;10.65;5.90;;;;;;;8.82;60.92;99761.16;4973375;29;20042;-64
2021/12/05 04:54:51;;;;;;;11.63;6.15;;;;;;;9.06;60.90;99765.38;4973069;29;20532;-64
2021/12/05 04:57:16;;;;;;;11.63;6.63;;;;;;;9.63;59.81;99765.25;4956568;29;20057;-67
2021/12/05 04:59:47;;;;;;;10.65;6.45;;;;;;;8.86;61.29;99764.88;4973117;29;20031;-65
2021/12/05 05:02:13;;;;;;;12.13;5.60;;;;;;;9.11;59.81;99765.22;4973373;29;20032;-63
2021/12/05 05:04:45;;;;;;;14.48;6.47;;;;;;;8.81;61.05;99765.03;4972789;29;20058;-64
2021/12/05 05:07:24;;;;;;;9.48;5.32;;;;;;;8.88;60.45;99761.81;4973370;29;20091;-63
2021/12/05 05:09:54;;;;;;;13.35;4.90;;;;;;;8.85;60.49;99776.91;4955993;29;20059;-63
2021/12/05 05:12:20;;;;;;;9.55;4.53;;;;;;;8.96;59.06;99773.91;4973374;29;20043;-65
2021/12/05 05:14:46;;;;;;;6.32;3.63;;;;;;;8.96;59.23;99782.09;4972684;29;20110;-63
2021/12/05 05:17:12;;;;;;;8.77;3.95;;;;;;;8.92;59.48;99789.31;4973168;29;20042;-65
2021/12/05 05:19:45;;;;;;;8.82;4.13;;;;;;;8.96;60.22;99787.56;4940055;29;20035;-67
2021/12/05 05:46:05;;;;;;;9.68;4.70;;;;;;;9.19;58.93;99794.50;4972669;29;20047;-63
2021/12/05 05:51:04;;;;;;;8.75;4.63;;;;;;;9.62;56.86;99799.22;4960515;29;20054;-65
2021/12/05 05:53:30;;;;;;;9.65;4.55;;;;;;;10.26;55.31;99802.34;4943975;29;20047;-65
2021/12/05 05:55:56;;;;;;;6.75;4.32;;;;;;;9.80;56.43;99808.22;4959450;29;20042;-64
2021/12/05 05:58:27;;;;;;;7.70;4.18;;;;;;;9.57;56.66;99817.72;4976754;29;20031;-64
2021/12/05 06:01:04;;;;;;;6.95;4.22;;;;;;;9.53;57.75;99816.75;4976230;29;20027;-65
2021/12/05 06:03:31;;;;;;;7.18;4.07;;;;;;;9.60;57.24;99826.09;4959639;29;20061;-63
2021/12/05 06:06:04;;;;;;;9.35;4.43;;;;;;;9.54;57.78;99818.38;4959109;29;20027;-64
2021/12/05 06:08:33;;;;;;;8.75;4.63;;;;;;;8.97;58.47;99821.97;4959646;29;20039;-65
2021/12/05 06:11:02;;;;;;;8.23;4.25;;;;;;;9.80;57.45;99821.13;4959364;29;20079;-66
2021/12/05 06:13:29;;;;;;;10.50;4.43;;;;;;;9.90;56.59;99825.47;4959365;29;20038;-64
2021/12/05 06:15:55;;;;;;;8.17;4.37;;;;;;;9.71;56.54;99832.06;4943193;29;20035;-62
2021/12/05 06:18:21;;;;;;;8.02;4.50;;;;;;;9.47;56.31;99832.53;4976353;29;20279;-63
2021/12/05 06:20:46;;;;;;;10.02;4.75;;;;;;;10.17;55.07;99840.72;4975935;29;20027;-63
2021/12/05 06:23:13;;;;;;;9.18;4.60;;;;;;;10.17;55.14;99843.47;4976161;29;20138;-64
2021/12/05 06:25:41;;;;;;;8.43;4.45;;;;;;;10.26;54.72;99849.75;4976315;29;20027;-65
2021/12/05 06:28:13;;;;;;;9.13;4.50;;;;;;;10.70;53.50;99847.69;4974950;28;20520;-64
2021/12/05 06:30:49;;;;;;;10.52;4.70;;;;;;;10.85;52.96;99859.28;4976155;29;20038;-66
2021/12/05 06:41:34;;;;;;;8.25;4.53;;;;;;;10.71;53.67;99870.44;4958940;29;20496;-63
2021/12/05 06:46:45;;;;;;;8.27;4.70;;;;;;;10.35;53.96;99874.38;4975899;29;20050;-64
2021/12/05 06:49:10;;;;;;;8.60;5.05;;;;;;;10.43;53.77;99881.78;4958842;29;20039;-62
2021/12/05 06:51:36;;;;;;;9.38;5.20;;;;;;;9.20;57.00;99874.63;4959016;29;20049;-64
2021/12/05 06:54:02;;;;;;;9.13;5.10;;;;;;;8.92;58.75;99872.13;4975254;29;20079;-64
2021/12/05 06:56:27;;;;;;;11.10;4.82;;;;;;;9.61;56.43;99878.91;4958705;29;20027;-65
2021/12/05 06:58:54;;;;;;;10.05;5.43;;;;;;;9.81;56.86;99891.16;4942679;29;20032;-66
2021/12/05 07:01:19;;;;;;;11.32;5.80;;;;;;;9.50;57.70;99889.34;4974485;28;20043;-65
2021/12/05 07:03:47;;;;;;;9.07;5.40;;;;;;;9.46;58.43;99904.78;4974348;29;20392;-66
2021/12/05 07:06:27;;;;;;;13.02;5.93;;;;;;;9.28;59.76;99894.94;4958823;29;20029;-64
2021/12/05 07:08:56;;;;;;;9.38;5.53;;;;;;;9.35;59.75;99892.53;4958218;29;20031;-63
2021/12/05 07:11:37;;;;;;;10.45;5.68;;;;;;;9.21;60.30;99900.84;4959137;29;20028;-63
2021/12/05 07:19:36;;;;;;;13.30;6.05;;;;;;;9.77;58.28;99915.63;4974860;29;20043;-64
2021/12/05 07:22:14;;;;;;;12.05;5.80;;;;;;;9.31;59.17;99913.44;4974795;29;20027;-64
2021/12/05 07:24:49;;;;;;;10.10;4.82;;;;;;;10.63;55.68;99926.91;4945626;29;20497;-64
2021/12/05 07:41:11;;;;;;;9.02;4.70;;;;;;;10.38;55.64;99952.41;4974612;29;20046;-63
2021/12/05 07:43:36;;;;;;;8.15;4.57;;;;;;;10.66;54.89;99945.44;4974630;29;20031;-65
2021/12/05 07:46:06;;;;;;;10.00;5.88;;;;;;;10.02;56.16;99950.75;4957187;29;20050;-64
2021/12/05 07:48:34;;;;;;;7.50;4.63;;;;;;;9.31;57.84;99951.75;4943000;29;20035;-64
2021/12/05 07:51:20;;;;;;;9.82;5.28;;;;;;;9.68;57.77;99955.84;4957195;29;20027;-62
2021/12/05 07:53:56;;;;;;;12.75;6.95;;;;;;;10.05;56.16;99958.31;4974613;29;20027;-63
2021/12/05 07:56:37;;;;;;;15.05;7.90;;;;;;;10.40;55.38;99953.66;4974494;29;20038;-65
2021/12/05 08:15:16;;;;;;;14.95;7.55;;;;;;;10.23;56.72;99986.53;4959523;29;20099;-64
2021/12/05 08:17:50;;;;;;;13.55;7.43;;;;;;;10.16;56.72;99989.75;4973219;29;20043;-64
2021/12/05 08:20:15;;;;;;;14.27;7.20;;;;;;;9.74;58.17;99987.44;4958079;29;20027;-64
2021/12/05 08:22:41;;;;;;;16.70;7.88;;;;;;;9.22;59.46;99993.50;4973864;29;20059;-64
2021/12/05 08:25:13;;;;;;;20.13;8.82;;;;;;;9.62;58.95;99990.78;4956632;29;20067;-63
2021/12/05 08:27:44;;;;;;;16.45;8.50;;;;;;;9.88;58.48;99998.25;4974205;29;20121;-64
2021/12/05 08:30:14;;;;;;;14.70;7.97;;;;;;;10.51;56.15;100006.22;4972593;29;20440;-61
2021/12/05 09:24:34;;;;;;;17.35;7.35;;;;;;;9.76;59.75;100077.44;4971264;28;20047;-64
2021/12/05 09:51:09;;;;;;;10.82;5.28;;;;;;;9.18;61.53;100101.09;4967731;29;20046;-61
2021/12/05 10:08:03;;;;;;;10.98;4.82;;;;;;;10.91;58.93;100134.91;4957891;29;20042;-62
2021/12/05 10:40:43;;;;;;;6.43;3.53;;;;;;;11.79;55.61;100166.56;4974421;29;20647;-64
2021/12/05 10:43:18;;;;;;;7.95;3.65;;;;;;;12.00;55.67;100174.13;4958044;29;20137;-61
2021/12/05 10:45:48;;;;;;;6.18;3.20;;;;;;;12.37;54.14;100177.19;4975399;29;20216;-64
2021/12/05 10:48:22;;;;;;;6.35;2.85;;;;;;;11.89;54.51;100173.66;4975189;29;20094;-62
2021/12/05 10:50:50;;;;;;;6.03;3.17;;;;;;;11.56;55.77;100170.66;4974246;29;20071;-64
2021/12/05 10:53:16;;;;;;;5.95;3.40;;;;;;;11.41;55.11;100177.50;4975335;29;20030;-62
2021/12/05 10:55:42;;;;;;;4.22;2.40;;;;;;;11.26;56.09;100178.78;4975250;29;20058;-65
2021/12/05 10:58:07;;;;;;;5.78;3.05;;;;;;;11.22;55.69;100186.06;4974855;28;20023;-61
2021/12/05 11:00:33;;;;;;;6.05;3.03;;;;;;;10.79;56.86;100184.91;4974799;29;20086;-63
2021/12/05 11:03:20;;;;;;;5.20;2.47;;;;;;;11.57;55.30;100186.03;4958072;29;20114;-63
2021/12/05 11:05:47;;;;;;;6.72;3.15;;;;;;;11.74;54.68;100185.97;4973962;28;20023;-64
2021/12/05 11:08:36;;;;;;;5.88;2.63;;;;;;;12.50;53.15;100180.84;4974794;28;20027;-63
2021/12/05 11:11:16;;;;;;;6.32;2.65;;;;;;;11.54;55.15;100186.66;4974872;28;20035;-63
2021/12/05 11:13:44;;;;;;;7.25;2.70;;;;;;;11.63;56.11;100187.47;4973875;29;20507;-63
2021/12/05 11:16:38;;;;;;;6.43;3.20;;;;;;;12.62;53.13;100191.13;4957435;29;20023;-63
2021/12/05 11:19:24;;;;;;;6.28;2.80;;;;;;;11.82;54.20;100197.25;4974874;29;20034;-60
2021/12/05 11:22:18;;;;;;;5.10;2.50;;;;;;;11.86;54.33;100203.72;4974772;29;20392;-62
2021/12/05 11:24:47;;;;;;;5.63;3.20;;;;;;;11.89;54.45;100197.56;4968789;28;20047;-62
2021/12/05 11:27:15;;;;;;;5.45;3.00;;;;;;;12.09;54.21;100198.81;4957185;29;20050;-62
2021/12/05 11:29:48;;;;;;;;;;;;;;;12.61;53.49;100195.81;4974768;29;20040;-63
2021/12/05 11:32:33;;;;;;;5.60;2.85;;;;;;;12.08;54.20;100195.28;4974464;29;19910;-63
2021/12/05 11:35:09;;;;;;;4.97;2.92;;;;;;;12.22;53.77;100199.75;4974398;29;20026;-62
2021/12/05 11:37:56;;;;;;;7.15;3.03;;;;;;;12.33;53.70;100206.50;4973843;28;20027;-61
2021/12/05 11:40:24;;;;;;;7.97;3.25;;;;;;;12.43;53.09;100208.84;4974278;29;20027;-63
2021/12/05 11:42:50;;;;;;;;;;;;;;;12.99;51.87;100205.13;4938523;29;20028;-64
2021/12/05 11:45:16;;;;;;;4.50;3.00;;;;;;;12.82;52.49;100211.53;4967302;29;19910;-60
2021/12/05 11:47:41;;;;;;;5.03;3.00;;;;;;;11.62;54.73;100216.84;4970899;28;20050;-62
2021/12/05 11:50:08;;;;;;;4.75;3.00;;;;;;;11.80;53.78;100206.66;4957145;28;20107;-62
2021/12/05 11:52:38;;;;;;;5.65;3.05;;;;;;;12.55;53.29;100223.84;4956611;29;20070;-65
2021/12/05 11:55:04;;;;;;;5.72;3.30;;;;;;;12.91;51.91;100220.56;4974024;29;20033;-63
2021/12/05 11:57:29;;;;;;;5.50;3.25;;;;;;;12.77;52.08;100220.00;4973066;29;20027;-61
2021/12/05 12:00:00;;;;;;;5.45;3.22;;;;;;;12.18;53.48;100229.03;4957154;29;20034;-61
2021/12/05 12:02:30;;;;;;;5.95;4.00;;;;;;;12.59;53.08;100236.59;4973442;29;20027;-63
2021/12/05 12:04:57;;;;;;;5.72;4.18;;;;;;;12.27;53.57;100235.28;4956907;29;20037;-62
2021/12/05 12:07:25;;;;;;;5.95;3.85;;;;;;;12.69;52.16;100240.91;4973874;29;20027;-64
2021/12/05 12:09:59;;;;;;;5.32;3.95;;;;;;;12.74;52.45;100239.91;4956733;29;20063;-62
2021/12/05 12:12:25;;;;;;;6.88;4.00;;;;;;;12.27;53.01;100243.53;4973726;29;20032;-63
2021/12/05 12:14:50;;;;;;;4.85;3.80;;;;;;;11.85;53.52;100237.81;4973552;29;20035;-60
2021/12/05 12:17:17;;;;;;;5.30;3.92;;;;;;;12.37;52.68;100247.88;4974108;29;20028;-63
2021/12/05 12:19:48;;;;;;;6.60;4.45;;;;;;;12.32;52.66;100251.59;4973003;29;20035;-63
2021/12/05 12:22:19;;;;;;;5.85;4.22;;;;;;;12.42;52.90;100242.19;4973765;29;20035;-62
2021/12/05 12:24:48;;;;;;;6.05;4.80;;;;;;;11.94;54.05;100253.16;4971891;29;20598;-67
2021/12/05 12:27:14;;;;;;;10.88;5.47;;;;;;;11.17;55.06;100261.09;4973058;29;20043;-64
2021/12/05 12:29:41;;;;;;;10.35;6.28;;;;;;;11.29;55.13;100268.69;4955913;29;20802;-61
2021/12/05 12:32:12;;;;;;;9.93;6.05;;;;;;;11.60;54.52;100265.78;4956290;29;20031;-61
2021/12/05 12:34:39;;;;;;;9.68;6.10;;;;;;;10.96;55.64;100271.88;4973110;29;20023;-61
2021/12/05 12:37:06;;;;;;;12.73;6.68;;;;;;;11.56;54.71;100272.25;4973128;29;20066;-62
2021/12/05 12:39:43;;;;;;;12.63;7.22;;;;;;;11.55;54.88;100278.88;4971412;29;20031;-63
2021/12/05 12:42:21;;;;;;;14.55;7.95;;;;;;;11.69;54.88;100282.28;4972774;29;20035;-62
2021/12/05 12:45:12;;;;;;;15.63;8.35;;;;;;;12.81;52.02;100292.47;4973108;29;20026;-61
2021/12/05 12:47:45;;;;;;;15.20;8.60;;;;;;;11.96;54.40;100286.63;4972634;29;20106;-63
2021/12/05 12:50:34;;;;;;;15.75;8.98;;;;;;;11.39;55.38;100284.03;4973135;29;20030;-62
2021/12/05 12:53:14;;;;;;;18.10;9.65;;;;;;;11.69;54.98;100287.75;4973110;29;20023;-62
2021/12/05 12:56:11;;;;;;;21.00;10.57;;;;;;;11.42;55.08;100295.19;4972614;29;20058;-60
2021/12/05 12:58:50;;;;;;;19.95;10.40;;;;;;;11.77;54.77;100300.66;4971765;28;20035;-60
2021/12/05 13:10:27;;;;;;;29.50;13.30;;;;;;;12.40;52.20;100313.97;4972293;29;20094;-62
2021/12/05 13:12:48;;;;;;;24.50;12.70;;;;;;;12.02;53.39;100313.91;4958823;29;20350;-60
2021/12/05 13:15:16;;;;;;;29.63;13.20;;;;;;;11.37;54.89;100319.22;4959428;29;20026;-60
2021/12/05 13:17:57;;;;;;;34.08;15.30;;;;;;;11.54;54.53;100330.22;4955184;29;20030;-60
2021/12/05 13:20:27;;;;;;;29.58;14.35;;;;;;;11.34;54.86;100320.69;4960546;29;20079;-63
2021/12/05 13:23:09;;;;;;;30.15;14.55;;;;;;;11.48;54.60;100331.50;4955024;29;20039;-62
2021/12/05 13:25:57;;;;;;;31.08;14.98;;;;;;;11.95;53.47;100320.72;4971911;29;20039;-62
2021/12/05 13:28:35;;;;;;;31.15;14.15;;;;;;;11.53;53.89;100344.25;4955574;29;20023;-62
2021/12/05 13:31:32;;;;;;;36.20;14.82;;;;;;;12.14;52.72;100341.53;4955586;29;20115;-61
2021/12/05 13:34:20;;;;;;;31.30;14.85;;;;;;;12.03;53.27;100340.25;4954930;29;20051;-63
2021/12/05 13:37:05;;;;;;;28.92;14.65;;;;;;;12.12;52.90;100339.13;4971103;28;20027;-60
2021/12/05 13:39:34;;;;;;;29.08;14.38;;;;;;;11.24;54.33;100345.69;4965265;28;20055;-61
2021/12/05 13:42:22;;;;;;;34.05;15.48;;;;;;;11.30;54.34;100347.16;4971439;29;20026;-62
2021/12/05 13:45:06;;;;;;;24.75;14.05;;;;;;;11.98;52.81;100341.25;4947924;29;20047;-62
2021/12/05 13:48:08;;;;;;;28.25;14.25;;;;;;;12.27;52.27;100350.72;4972467;29;20027;-61
2021/12/05 13:50:41;;;;;;;32.80;16.40;;;;;;;11.57;53.94;100353.47;4906188;29;20044;-61
2021/12/05 13:53:06;;;;;;;33.42;16.23;;;;;;;10.41;56.09;100360.03;4959112;28;20114;-63
2021/12/05 13:55:58;;;;;;;32.28;16.48;;;;;;;10.32;57.09;100352.59;4971860;29;20043;-62
2021/12/05 13:58:34;;;;;;;36.20;16.98;;;;;;;11.21;54.97;100363.56;4955297;29;20451;-61
2021/12/05 14:01:18;;;;;;;34.10;16.90;;;;;;;11.05;55.09;100374.19;4971810;29;20027;-63
2021/12/05 14:04:06;;;;;;;34.92;17.27;;;;;;;12.22;52.89;100379.19;4971953;29;20074;-60
2021/12/05 14:06:31;;;;;;;40.70;18.88;;;;;;;11.80;53.74;100379.66;4968516;29;20027;-62
2021/12/05 14:09:15;;;;;;;37.22;18.02;;;;;;;11.81;54.07;100377.72;4954201;28;20041;-62
2021/12/05 14:11:44;;;;;;;38.22;19.02;;;;;;;11.99;53.09;100392.28;4947151;29;20027;-64
2021/12/05 14:14:10;;;;;;;40.88;19.42;;;;;;;12.21;52.32;100396.78;4971185;29;20484;-63
2021/12/05 14:16:38;;;;;;;37.83;18.55;;;;;;;12.04;52.81;100405.06;4961390;29;20036;-63
2021/12/05 14:19:08;;;;;;;40.42;18.85;;;;;;;11.43;54.21;100417.53;4952539;29;20071;-63
2021/12/05 14:21:39;;;;;;;41.65;19.92;;;;;;;11.33;54.18;100423.34;4950382;29;20022;-61
2021/12/05 14:24:04;;;;;;;44.78;21.80;;;;;;;11.35;53.89;100423.81;4972356;29;20051;-62
2021/12/05 14:26:32;;;;;;;40.70;19.83;;;;;;;11.92;52.71;100433.19;4974864;29;20038;-61
2021/12/05 14:29:04;;;;;;;;;;;;;;;11.98;52.57;100429.94;4954329;29;20027;-62
2021/12/05 14:31:33;;;;;;;40.53;20.13;;;;;;;11.66;53.46;100436.69;4970832;29;19919;-61
2021/12/05 14:33:59;;;;;;;39.95;18.75;;;;;;;10.94;55.52;100448.84;4970763;29;20023;-61
2021/12/05 14:36:31;;;;;;;46.65;19.33;;;;;;;11.94;53.10;100453.69;4971217;29;20030;-62
2021/12/05 14:39:07;;;;;;;38.35;17.50;;;;;;;12.09;52.37;100452.41;4954155;28;20023;-64
2021/12/05 14:41:34;;;;;;;36.85;17.38;;;;;;;12.19;51.81;100458.72;4964158;29;20040;-63
2021/12/05 14:43:59;;;;;;;34.95;17.23;;;;;;;12.30;51.86;100468.25;4950490;29;20087;-61
2021/12/05 14:46:25;;;;;;;42.58;21.27;;;;;;;11.55;53.20;100471.06;4968815;29;20023;-62
2021/12/05 14:48:58;;;;;;;38.35;17.63;;;;;;;12.20;52.27;100482.31;4963563;29;20038;-64
2021/12/05 14:51:38;;;;;;;38.33;19.42;;;;;;;12.32;52.03;100485.22;4972082;29;20035;-64
2021/12/05 14:54:05;;;;;;;35.78;17.55;;;;;;;12.63;50.85;100487.81;4941361;29;20174;-61
2021/12/05 14:56:33;;;;;;;35.03;18.33;;;;;;;12.33;52.06;100492.34;4945244;29;20028;-61
2021/12/05 14:59:02;;;;;;;;;;;;;;;12.58;50.95;100500.91;4966986;29;20028;-61
2021/12/05 15:01:29;;;;;;;38.08;18.25;;;;;;;12.39;51.34;100507.56;4971999;29;19930;-61
2021/12/05 15:03:54;;;;;;;34.10;18.45;;;;;;;12.07;51.95;100523.34;4969098;29;20030;-63
2021/12/05 15:06:20;;;;;;;34.05;16.73;;;;;;;12.43;51.60;100529.69;4950177;29;20051;-61
2021/12/05 15:08:45;;;;;;;32.42;15.45;;;;;;;12.77;50.51;100531.59;4954717;29;20124;-62
2021/12/05 15:11:11;;;;;;;33.50;15.68;;;;;;;12.81;50.20;100537.28;4969931;29;20038;-63
2021/12/05 15:13:37;;;;;;;31.23;15.52;;;;;;;12.30;51.66;100542.47;4971818;28;20024;-62
2021/12/05 15:16:04;;;;;;;30.08;15.88;;;;;;;12.66;50.82;100549.56;4951520;29;20047;-61
2021/12/05 15:18:32;;;;;;;28.50;14.88;;;;;;;12.60;51.20;100556.38;4941609;29;20027;-61
2021/12/05 15:20:59;;;;;;;29.55;14.60;;;;;;;12.74;50.47;100557.00;4953196;29;20031;-62
2021/12/05 15:23:30;;;;;;;32.35;16.13;;;;;;;12.61;51.10;100560.75;4968663;28;20046;-63
2021/12/05 15:25:59;;;;;;;28.35;14.88;;;;;;;12.39;51.56;100561.72;4967798;29;20094;-63
2021/12/05 15:28:25;;;;;;;32.17;15.85;;;;;;;12.59;50.97;100569.31;4968645;29;20030;-64
2021/12/05 15:30:51;;;;;;;32.95;16.63;;;;;;;12.53;51.25;100578.84;4944115;29;20032;-63
2021/12/05 15:33:21;;;;;;;34.67;17.97;;;;;;;12.54;51.26;100582.44;4971572;29;20034;-61
2021/12/05 15:35:49;;;;;;;33.85;16.98;;;;;;;12.94;50.23;100587.75;4970736;29;20037;-62
2021/12/05 15:38:22;;;;;;;30.33;15.65;;;;;;;12.94;50.32;100590.50;4967964;29;20867;-62
2021/12/05 15:40:52;;;;;;;33.60;17.02;;;;;;;12.41;51.58;100596.00;4969136;29;20015;-61
2021/12/05 15:43:20;;;;;;;36.67;17.67;;;;;;;12.67;51.21;100603.47;4969184;29;20023;-61
2021/12/05 15:45:50;;;;;;;33.67;16.98;;;;;;;12.88;50.63;100606.38;4964530;29;20019;-62
2021/12/05 15:48:26;;;;;;;32.70;17.05;;;;;;;12.53;51.61;100603.59;4954028;29;20023;-64
2021/12/05 15:50:52;;;;;;;30.08;16.50;;;;;;;12.78;51.28;100606.72;4971542;29;20066;-61
2021/12/05 15:53:19;;;;;;;35.00;17.67;;;;;;;13.08;50.51;100610.41;4954010;29;20034;-64
2021/12/05 15:55:51;;;;;;;32.40;17.00;;;;;;;13.04;50.67;100615.75;4956856;29;20072;-62
2021/12/05 15:58:47;;;;;;;31.38;16.38;;;;;;;12.84;50.99;100622.72;4973452;29;20090;-61
2021/12/05 16:01:15;;;;;;;30.85;17.15;;;;;;;13.04;50.54;100625.94;4964847;29;20042;-63
2021/12/05 16:03:41;;;;;;;31.60;16.48;;;;;;;12.11;52.74;100639.75;4971245;29;20100;-61
2021/12/05 16:06:07;;;;;;;29.25;15.52;;;;;;;12.57;51.60;100645.03;4970748;28;20031;-62
2021/12/05 16:08:33;;;;;;;28.88;15.48;;;;;;;12.76;51.28;100645.53;4951273;29;20031;-63
2021/12/05 16:11:00;;;;;;;26.13;15.35;;;;;;;12.04;52.85;100650.41;4972814;29;20034;-63
2021/12/05 16:13:37;;;;;;;28.13;16.13;;;;;;;12.45;52.06;100651.16;4953060;29;20027;-63
2021/12/05 16:16:10;;;;;;;31.20;16.90;;;;;;;12.37;52.05;100660.19;4955054;29;20027;-65
2021/12/05 16:18:38;;;;;;;25.58;14.32;;;;;;;12.13;52.51;100664.97;4965659;29;20035;-61
2021/12/05 16:21:15;;;;;;;27.02;15.88;;;;;;;11.77;52.95;100670.59;4972145;29;20034;-63
2021/12/05 16:23:40;;;;;;;28.17;16.10;;;;;;;11.89;52.81;100667.28;4949769;29;20047;-60
2021/12/05 16:26:10;;;;;;;25.83;13.77;;;;;;;12.04;52.79;100671.56;4969009;28;20050;-64
2021/12/05 16:28:40;;;;;;;25.45;13.60;;;;;;;11.69;53.81;100676.84;4965041;29;20032;-61
2021/12/05 16:31:30;;;;;;;23.92;12.85;;;;;;;11.84;53.45;100683.91;4966973;28;20019;-63
2021/12/05 16:33:59;;;;;;;23.98;13.50;;;;;;;12.25;52.52;100677.28;4964598;28;20027;-62
2021/12/05 16:36:30;;;;;;;25.50;13.52;;;;;;;12.26;52.08;100695.41;4966112;29;20036;-63
2021/12/05 16:38:56;;;;;;;24.23;13.30;;;;;;;12.18;52.06;100688.75;4964972;29;20038;-64
2021/12/05 16:41:30;;;;;;;23.67;12.75;;;;;;;11.60;53.97;100707.03;4968797;28;20027;-61
2021/12/05 16:44:05;;;;;;;25.02;13.35;;;;;;;11.40;54.19;100708.31;4948141;29;20035;-63
2021/12/05 16:46:36;;;;;;;26.70;13.13;;;;;;;11.90;53.17;100715.56;4967947;29;20075;-62
2021/12/05 16:49:06;;;;;;;23.30;12.50;;;;;;;12.47;51.80;100706.63;4970530;29;20055;-62
2021/12/05 16:51:42;;;;;;;23.27;12.55;;;;;;;12.41;51.42;100716.97;4953291;28;20023;-60
2021/12/05 16:54:25;;;;;;;20.25;11.45;;;;;;;12.93;50.18;100729.22;4969028;28;20032;-63
2021/12/05 16:57:31;;;;;;;19.38;11.07;;;;;;;13.17;49.42;100745.25;4968464;29;20030;-62
2021/12/05 16:59:59;;;;;;;20.03;11.60;;;;;;;12.86;49.96;100737.94;4962408;29;20046;-61
2021/12/05 17:02:35;;;;;;;22.60;11.23;;;;;;;12.86;49.87;100752.50;4966704;28;20039;-60
2021/12/05 17:05:07;;;;;;;20.35;11.20;;;;;;;12.28;51.35;100750.88;4965115;29;20020;-61
2021/12/05 17:07:49;;;;;;;18.60;10.88;;;;;;;12.71;50.36;100761.22;4964753;28;20038;-61
2021/12/05 17:10:20;;;;;;;19.35;11.07;;;;;;;12.61;50.42;100767.00;4951728;29;20062;-63
2021/12/05 17:12:48;;;;;;;20.42;11.40;;;;;;;12.63;50.32;100779.31;4970771;28;20051;-63